Time;durP1;ratioP1;P1;durP2;ratioP2;P2;SDS_P1;SDS_P2;PMS_P1;PMS_P2;Temp;Humidity;BMP_temperature;BMP_pressure;BME280_temperature;BME280_humidity;BME280_pressure;Samples;Min_cycle;Max_cycle;Signal;HPM_P1;HPM_P2
2023/09/24 00:01:45;;;;;;;1.57;0.90;;;;;;;13.86;100.00;99730.41;4924677;29;20266;-81
2023/09/24 00:04:14;;;;;;;1.80;1.20;;;;;;;13.77;100.00;99732.66;4923979;29;20205;-81
2023/09/24 00:06:50;;;;;;;2.57;1.10;;;;;;;13.74;100.00;99735.84;4908034;29;20197;-81
2023/09/24 00:09:24;;;;;;;1.33;0.90;;;;;;;13.87;100.00;99751.72;4908420;29;20208;-81
2023/09/24 00:11:57;;;;;;;1.17;1.07;;;;;;;13.82;100.00;99757.00;4907353;29;20695;-81
2023/09/24 00:14:36;;;;;;;2.37;1.10;;;;;;;13.90;100.00;99758.53;4893849;29;20220;-81
2023/09/24 00:17:11;;;;;;;2.20;1.30;;;;;;;13.85;100.00;99761.94;4907583;29;20189;-81
2023/09/24 00:19:42;;;;;;;1.67;1.10;;;;;;;13.82;100.00;99754.31;4907239;29;20241;-81
2023/09/24 00:22:17;;;;;;;1.50;1.00;;;;;;;13.85;100.00;99747.66;4892210;29;20185;-81
2023/09/24 00:24:49;;;;;;;2.30;1.10;;;;;;;13.89;100.00;99741.56;4921681;29;20193;-81
2023/09/24 00:27:23;;;;;;;1.23;0.90;;;;;;;13.94;100.00;99744.34;4908287;29;20180;-81
2023/09/24 00:29:58;;;;;;;1.10;1.00;;;;;;;13.92;100.00;99742.94;4906363;29;20581;-80
2023/09/24 00:32:32;;;;;;;1.33;0.97;;;;;;;13.92;100.00;99726.78;4906380;29;20228;-80
2023/09/24 00:35:06;;;;;;;2.07;1.00;;;;;;;13.92;100.00;99734.84;4906321;29;20229;-80
2023/09/24 00:37:37;;;;;;;1.10;1.00;;;;;;;13.91;100.00;99742.13;4891455;29;20207;-80
2023/09/24 00:40:11;;;;;;;3.00;1.10;;;;;;;13.89;100.00;99744.25;4905751;29;20198;-80
2023/09/24 00:42:43;;;;;;;0.83;0.83;;;;;;;13.90;100.00;99743.19;4905763;29;20188;-80
2023/09/24 00:45:16;;;;;;;1.00;0.90;;;;;;;13.99;100.00;99747.16;4907133;29;20200;-80
2023/09/24 00:47:52;;;;;;;1.20;1.10;;;;;;;14.11;100.00;99744.41;4906579;29;20257;-80
2023/09/24 00:50:21;;;;;;;1.43;1.10;;;;;;;14.23;100.00;99747.88;4905317;29;20199;-80
2023/09/24 00:52:51;;;;;;;1.10;0.93;;;;;;;14.18;100.00;99745.09;4905796;29;20236;-80
2023/09/24 00:55:20;;;;;;;1.73;1.03;;;;;;;14.18;100.00;99747.78;4921638;29;20203;-80
2023/09/24 00:57:51;;;;;;;1.03;0.90;;;;;;;14.28;100.00;99755.22;4905575;29;20670;-80
2023/09/24 01:00:25;;;;;;;0.93;0.80;;;;;;;14.38;100.00;99737.41;4891964;29;20213;-80
2023/09/24 01:02:59;;;;;;;1.10;1.00;;;;;;;14.28;100.00;99737.19;4906869;29;20203;-80
2023/09/24 01:05:30;;;;;;;1.77;1.00;;;;;;;14.41;100.00;99738.81;4905812;29;20232;-80
2023/09/24 01:08:02;;;;;;;1.60;1.10;;;;;;;14.26;100.00;99733.94;4905750;29;20207;-80
2023/09/24 01:10:30;;;;;;;1.43;1.00;;;;;;;14.25;100.00;99734.97;4906171;29;20672;-79
2023/09/24 01:13:04;;;;;;;2.20;1.00;;;;;;;14.34;100.00;99730.84;4921544;29;20702;-79
2023/09/24 01:15:36;;;;;;;1.90;1.00;;;;;;;14.40;100.00;99719.13;4905970;29;20807;-81
2023/09/24 01:18:08;;;;;;;1.07;0.83;;;;;;;14.34;100.00;99713.84;4905448;29;20190;-80
2023/09/24 01:20:38;;;;;;;1.20;1.03;;;;;;;14.30;100.00;99710.81;4920729;29;20188;-80
2023/09/24 01:23:08;;;;;;;1.53;1.00;;;;;;;14.34;100.00;99711.97;4889751;29;20199;-80
2023/09/24 01:25:40;;;;;;;1.30;1.00;;;;;;;14.37;100.00;99708.03;4920874;29;20216;-80
2023/09/24 01:28:14;;;;;;;2.40;0.90;;;;;;;14.29;100.00;99716.44;4906148;29;20198;-80
2023/09/24 01:30:44;;;;;;;1.93;1.00;;;;;;;14.35;100.00;99720.88;4905508;29;20199;-80
2023/09/24 01:33:14;;;;;;;0.80;0.80;;;;;;;14.34;100.00;99724.63;4906792;29;20204;-80
2023/09/24 01:35:42;;;;;;;1.53;0.80;;;;;;;14.31;100.00;99735.91;4905445;29;20253;-80
2023/09/24 01:38:14;;;;;;;1.40;1.10;;;;;;;14.23;100.00;99737.09;4904970;29;20241;-80
2023/09/24 01:40:43;;;;;;;1.73;0.90;;;;;;;14.25;100.00;99731.47;4921624;29;20661;-80
2023/09/24 01:43:14;;;;;;;1.07;0.90;;;;;;;14.26;100.00;99733.94;4904668;29;20199;-80
2023/09/24 01:45:47;;;;;;;1.57;1.10;;;;;;;14.26;100.00;99733.09;4921032;29;20218;-80
2023/09/24 01:48:20;;;;;;;1.63;1.00;;;;;;;14.21;100.00;99730.31;4904860;29;20199;-80
2023/09/24 01:50:48;;;;;;;1.33;1.10;;;;;;;14.06;100.00;99734.34;4905471;29;20173;-80
2023/09/24 01:53:19;;;;;;;2.10;1.10;;;;;;;14.10;100.00;99724.72;4919352;29;20227;-80
2023/09/24 01:55:48;;;;;;;1.20;0.87;;;;;;;14.23;100.00;99733.59;4906013;29;20222;-80
2023/09/24 01:58:18;;;;;;;1.30;1.10;;;;;;;14.13;100.00;99742.31;4904475;29;20676;-80
2023/09/24 02:00:47;;;;;;;3.13;1.10;;;;;;;14.09;100.00;99741.94;4904802;29;20194;-80
2023/09/24 02:03:18;;;;;;;1.20;0.90;;;;;;;14.10;100.00;99734.69;4920443;29;20261;-80
2023/09/24 02:05:54;;;;;;;2.17;1.10;;;;;;;14.18;100.00;99733.50;4905020;29;20190;-80
2023/09/24 02:08:23;;;;;;;1.23;0.80;;;;;;;14.13;100.00;99736.09;4905754;29;20213;-80
2023/09/24 02:10:55;;;;;;;2.77;1.07;;;;;;;14.04;100.00;99733.75;4905208;29;20204;-79
2023/09/24 02:13:26;;;;;;;1.83;1.00;;;;;;;14.07;100.00;99735.16;4905684;29;20222;-80
2023/09/24 02:15:54;;;;;;;1.10;1.00;;;;;;;14.05;100.00;99731.88;4905265;29;20219;-81
2023/09/24 02:18:22;;;;;;;0.93;0.80;;;;;;;13.99;100.00;99735.56;4906328;29;20261;-81
2023/09/24 02:20:51;;;;;;;0.90;0.80;;;;;;;13.99;100.00;99716.69;4921408;29;20194;-80
2023/09/24 02:23:22;;;;;;;1.70;1.10;;;;;;;13.96;100.00;99712.59;4905506;29;20269;-80
2023/09/24 02:25:51;;;;;;;1.43;0.80;;;;;;;13.96;100.00;99728.75;4905844;29;20274;-80
2023/09/24 02:28:20;;;;;;;1.60;0.93;;;;;;;13.95;100.00;99726.31;4905170;29;20201;-80
2023/09/24 02:30:53;;;;;;;1.47;0.97;;;;;;;13.82;100.00;99727.38;4906734;29;20216;-80
2023/09/24 02:33:26;;;;;;;1.23;0.80;;;;;;;13.83;100.00;99737.09;4920529;29;20271;-80
2023/09/24 02:35:58;;;;;;;1.13;0.97;;;;;;;13.73;100.00;99750.34;4905339;29;20201;-79
2023/09/24 02:38:32;;;;;;;1.67;0.93;;;;;;;13.89;100.00;99752.31;4905454;29;20217;-80
2023/09/24 02:41:02;;;;;;;1.97;1.07;;;;;;;13.71;100.00;99741.72;4889237;29;20262;-81
2023/09/24 02:43:32;;;;;;;2.20;0.97;;;;;;;13.69;100.00;99746.50;4904875;29;20219;-80
2023/09/24 02:46:03;;;;;;;1.50;0.77;;;;;;;13.68;100.00;99742.16;4905057;29;20209;-81
2023/09/24 02:48:32;;;;;;;2.23;0.90;;;;;;;13.67;100.00;99746.72;4906301;29;20225;-81
2023/09/24 02:51:10;;;;;;;1.17;0.90;;;;;;;13.71;100.00;99751.66;4905796;29;20205;-80
2023/09/24 02:53:43;;;;;;;1.23;1.00;;;;;;;13.70;100.00;99767.00;4904608;29;20220;-80
2023/09/24 02:56:17;;;;;;;1.10;1.00;;;;;;;13.70;100.00;99777.75;4889668;29;20222;-80
2023/09/24 02:58:49;;;;;;;1.07;0.90;;;;;;;13.63;100.00;99775.19;4905568;29;20245;-80
2023/09/24 03:01:20;;;;;;;1.20;0.90;;;;;;;13.83;100.00;99771.28;4905204;29;20202;-80
2023/09/24 03:03:50;;;;;;;2.60;0.90;;;;;;;13.86;100.00;99760.88;4891042;29;20741;-80
2023/09/24 03:06:19;;;;;;;1.83;0.90;;;;;;;13.84;100.00;99754.09;4904869;29;20675;-81
2023/09/24 03:08:49;;;;;;;0.90;0.87;;;;;;;13.77;100.00;99758.78;4889834;29;20218;-80
2023/09/24 03:11:17;;;;;;;1.00;0.90;;;;;;;13.67;100.00;99767.44;4909444;29;20225;-80
2023/09/24 03:13:48;;;;;;;1.33;1.03;;;;;;;13.81;100.00;99765.34;4912681;29;20216;-80
2023/09/24 03:16:17;;;;;;;1.30;0.90;;;;;;;13.73;100.00;99771.91;4910222;29;20320;-80
2023/09/24 03:18:47;;;;;;;1.37;1.20;;;;;;;13.70;100.00;99772.38;4908966;29;20709;-80
2023/09/24 03:21:19;;;;;;;2.03;1.00;;;;;;;13.71;100.00;99768.63;4907953;29;20210;-80
2023/09/24 03:23:47;;;;;;;1.10;0.93;;;;;;;13.62;100.00;99775.44;4927958;29;20233;-80
2023/09/24 03:26:16;;;;;;;1.80;1.20;;;;;;;13.62;100.00;99786.22;4918467;29;20205;-81
2023/09/24 03:28:48;;;;;;;1.10;1.00;;;;;;;13.56;100.00;99787.97;4908372;29;20270;-80
2023/09/24 03:31:19;;;;;;;1.13;1.00;;;;;;;13.68;100.00;99787.94;4917171;29;20741;-80
2023/09/24 03:33:46;;;;;;;1.53;0.90;;;;;;;13.77;100.00;99783.00;4911212;29;20266;-80
2023/09/24 03:36:16;;;;;;;1.20;1.00;;;;;;;13.72;100.00;99778.34;4908084;29;20216;-80
2023/09/24 03:38:45;;;;;;;1.63;0.80;;;;;;;13.71;100.00;99782.09;4907883;29;20199;-80
2023/09/24 03:41:16;;;;;;;1.80;1.00;;;;;;;13.67;100.00;99786.28;4892205;29;20308;-80
2023/09/24 03:43:45;;;;;;;1.10;0.90;;;;;;;13.67;100.00;99791.69;4891384;29;20245;-79
2023/09/24 03:46:15;;;;;;;1.17;0.70;;;;;;;13.70;100.00;99780.47;4908579;29;20215;-79
2023/09/24 03:48:50;;;;;;;1.03;0.80;;;;;;;13.78;100.00;99787.34;4907036;29;20196;-79
2023/09/24 03:51:19;;;;;;;3.43;1.00;;;;;;;13.77;100.00;99781.13;4907318;29;20250;-80
2023/09/24 03:53:46;;;;;;;1.17;0.90;;;;;;;13.78;100.00;99785.47;4890401;29;20240;-80
2023/09/24 03:56:17;;;;;;;1.03;0.87;;;;;;;13.76;100.00;99787.59;4907420;29;20252;-80
2023/09/24 03:58:46;;;;;;;1.30;0.90;;;;;;;13.85;100.00;99790.75;4906706;29;20654;-81
2023/09/24 04:01:18;;;;;;;1.03;0.90;;;;;;;14.02;100.00;99805.94;4908368;29;20269;-82
2023/09/24 04:03:49;;;;;;;1.73;1.00;;;;;;;13.92;100.00;99786.84;4894448;29;20214;-80
2023/09/24 04:06:17;;;;;;;1.07;0.90;;;;;;;13.88;100.00;99790.25;4892344;29;20204;-80
2023/09/24 04:08:45;;;;;;;1.50;1.03;;;;;;;13.76;100.00;99784.09;4907849;29;20185;-80
2023/09/24 04:11:15;;;;;;;1.73;1.00;;;;;;;13.72;100.00;99799.88;4908433;29;20192;-80
2023/09/24 04:13:44;;;;;;;1.10;1.00;;;;;;;13.83;100.00;99817.06;4907118;29;20236;-80
2023/09/24 04:16:13;;;;;;;1.13;0.90;;;;;;;13.87;100.00;99818.25;4908214;29;20265;-80
2023/09/24 04:18:45;;;;;;;3.43;1.00;;;;;;;13.78;100.00;99823.16;4907508;29;20245;-80
2023/09/24 04:21:20;;;;;;;2.60;1.10;;;;;;;13.68;100.00;99815.69;4916572;29;20240;-80
2023/09/24 04:23:48;;;;;;;2.27;1.20;;;;;;;13.78;100.00;99830.44;4916995;29;20224;-80
2023/09/24 04:26:20;;;;;;;1.70;1.00;;;;;;;13.78;100.00;99830.44;4908063;29;20721;-80
2023/09/24 04:28:50;;;;;;;2.20;1.00;;;;;;;13.72;100.00;99832.19;4905891;29;20187;-80
2023/09/24 04:31:20;;;;;;;1.40;1.00;;;;;;;13.74;100.00;99837.34;4909726;29;20245;-81
2023/09/24 04:33:49;;;;;;;2.13;1.10;;;;;;;13.85;100.00;99836.53;4907845;29;20188;-80
2023/09/24 04:36:18;;;;;;;1.10;1.00;;;;;;;13.89;100.00;99829.59;4891358;29;20276;-81
2023/09/24 04:38:48;;;;;;;1.37;0.90;;;;;;;13.95;100.00;99834.06;4907158;29;20282;-80
2023/09/24 04:41:20;;;;;;;1.83;0.93;;;;;;;13.83;100.00;99834.06;4908805;29;20203;-80
2023/09/24 04:43:48;;;;;;;2.07;0.93;;;;;;;13.78;100.00;99836.63;4907984;29;20201;-82
2023/09/24 04:46:18;;;;;;;1.93;1.00;;;;;;;13.90;100.00;99833.94;4908272;29;20294;-82
2023/09/24 04:48:48;;;;;;;1.77;1.20;;;;;;;13.89;100.00;99848.47;4892075;29;20197;-82
2023/09/24 04:51:18;;;;;;;1.50;0.90;;;;;;;13.75;100.00;99860.53;4911975;29;20299;-80
2023/09/24 04:53:47;;;;;;;1.80;1.00;;;;;;;13.63;100.00;99865.91;4909347;29;20678;-79
2023/09/24 04:56:24;;;;;;;1.40;0.90;;;;;;;13.75;100.00;99864.03;4907464;29;20221;-79
2023/09/24 04:59:00;;;;;;;1.70;0.80;;;;;;;13.85;100.00;99866.16;4922267;29;20639;-80
2023/09/24 05:01:28;;;;;;;1.73;1.00;;;;;;;13.79;100.00;99862.53;4921582;29;20202;-80
2023/09/24 05:03:56;;;;;;;1.40;0.87;;;;;;;13.81;100.00;99867.69;4907361;29;20197;-80
2023/09/24 05:06:27;;;;;;;1.00;0.90;;;;;;;13.89;100.00;99860.06;4891031;29;20627;-81
2023/09/24 05:08:56;;;;;;;1.50;1.00;;;;;;;14.08;100.00;99876.91;4923538;29;20217;-82
2023/09/24 05:11:28;;;;;;;1.50;0.90;;;;;;;13.92;100.00;99861.44;4908046;29;20228;-82
2023/09/24 05:14:00;;;;;;;1.50;0.90;;;;;;;13.80;100.00;99871.41;4907840;29;20272;-82
2023/09/24 05:16:30;;;;;;;1.20;1.00;;;;;;;13.83;100.00;99882.53;4914807;29;20346;-82
2023/09/24 05:19:02;;;;;;;1.33;0.80;;;;;;;13.75;100.00;99879.38;4911006;29;20244;-80
2023/09/24 05:21:32;;;;;;;1.10;1.00;;;;;;;13.95;100.00;99890.63;4905993;29;20240;-80
2023/09/24 05:24:00;;;;;;;1.30;1.07;;;;;;;13.86;100.00;99883.94;4907619;29;20220;-81
2023/09/24 05:26:29;;;;;;;1.37;1.00;;;;;;;13.86;100.00;99887.44;4907641;29;20201;-81
2023/09/24 05:28:58;;;;;;;2.07;1.10;;;;;;;13.97;100.00;99893.88;4908689;29;20252;-80
2023/09/24 05:31:27;;;;;;;1.23;1.00;;;;;;;13.94;100.00;99891.69;4908185;29;20224;-81
2023/09/24 05:34:04;;;;;;;1.20;1.00;;;;;;;13.83;100.00;99900.56;4907639;29;20547;-81
2023/09/24 05:36:32;;;;;;;1.73;1.00;;;;;;;13.94;100.00;99910.53;4906890;29;20248;-80
2023/09/24 05:39:03;;;;;;;1.77;1.00;;;;;;;13.99;100.00;99907.94;4907922;29;20253;-81
2023/09/24 05:41:33;;;;;;;3.03;0.90;;;;;;;14.06;100.00;99906.75;4906958;29;20196;-83
2023/09/24 05:44:04;;;;;;;1.03;0.93;;;;;;;14.06;100.00;99908.63;4907421;29;20205;-80
2023/09/24 05:46:33;;;;;;;1.93;1.00;;;;;;;14.01;100.00;99916.59;4906364;29;20648;-80
2023/09/24 05:49:04;;;;;;;1.10;1.00;;;;;;;14.05;100.00;99920.47;4907399;29;20229;-80
2023/09/24 05:51:33;;;;;;;1.80;0.97;;;;;;;14.17;100.00;99920.47;4907963;29;20248;-81
2023/09/24 05:54:02;;;;;;;0.80;0.80;;;;;;;14.10;100.00;99931.34;4906185;29;20260;-80
2023/09/24 05:56:30;;;;;;;1.47;0.90;;;;;;;14.13;100.00;99936.28;4906378;29;20220;-81
2023/09/24 05:59:01;;;;;;;1.63;1.00;;;;;;;14.34;100.00;99930.28;4908111;29;20178;-80
2023/09/24 06:01:32;;;;;;;1.17;0.83;;;;;;;14.22;100.00;99939.44;4908078;29;20199;-81
2023/09/24 06:04:05;;;;;;;1.00;0.90;;;;;;;14.17;100.00;99936.63;4891848;29;20267;-81
2023/09/24 06:06:36;;;;;;;1.37;0.90;;;;;;;14.28;100.00;99941.19;4907587;29;20689;-80
2023/09/24 06:09:09;;;;;;;1.93;1.00;;;;;;;14.35;100.00;99947.28;4907451;29;20200;-81
2023/09/24 06:11:41;;;;;;;2.03;0.97;;;;;;;14.29;100.00;99942.81;4906497;29;20180;-81
2023/09/24 06:14:09;;;;;;;1.67;0.80;;;;;;;14.45;100.00;99956.44;4906562;29;20197;-80
2023/09/24 06:16:38;;;;;;;1.50;0.80;;;;;;;14.34;100.00;99967.19;4905869;29;20296;-80
2023/09/24 06:19:08;;;;;;;1.07;0.80;;;;;;;14.39;100.00;99961.94;4907435;29;20174;-80
2023/09/24 06:21:39;;;;;;;1.03;0.90;;;;;;;14.44;100.00;99964.75;4907217;29;20212;-81
2023/09/24 06:24:08;;;;;;;1.37;1.10;;;;;;;14.48;100.00;99960.53;4916601;29;20321;-80
2023/09/24 06:26:38;;;;;;;1.40;0.90;;;;;;;14.44;100.00;99980.94;4920078;29;20250;-80
2023/09/24 06:29:09;;;;;;;1.00;0.90;;;;;;;14.50;100.00;99970.03;4906834;29;20255;-80
2023/09/24 06:31:39;;;;;;;1.43;0.90;;;;;;;14.43;100.00;99961.25;4906787;29;20671;-81
2023/09/24 06:34:11;;;;;;;1.93;1.30;;;;;;;14.46;100.00;99974.25;4906730;29;20265;-81
2023/09/24 06:36:40;;;;;;;2.43;1.20;;;;;;;14.51;100.00;99968.16;4906155;29;20230;-80
2023/09/24 06:39:13;;;;;;;1.60;1.10;;;;;;;14.48;100.00;99972.13;4917299;29;20735;-81
2023/09/24 06:41:44;;;;;;;1.20;0.80;;;;;;;14.53;100.00;99969.56;4925835;29;20198;-81
2023/09/24 06:44:22;;;;;;;1.87;1.00;;;;;;;14.60;100.00;99976.72;4925001;29;20198;-81
2023/09/24 06:46:55;;;;;;;1.43;1.00;;;;;;;14.52;100.00;99983.25;4927861;29;20185;-81
2023/09/24 06:49:25;;;;;;;1.60;1.20;;;;;;;14.58;100.00;99990.41;4928771;29;20196;-81
2023/09/24 06:51:55;;;;;;;1.63;1.07;;;;;;;14.61;100.00;99998.03;4923960;29;20726;-81
2023/09/24 06:54:26;;;;;;;1.87;1.10;;;;;;;14.60;100.00;100009.88;4926802;29;20243;-80
2023/09/24 06:56:55;;;;;;;2.43;1.30;;;;;;;14.61;100.00;100008.81;4912028;29;20210;-81
2023/09/24 06:59:23;;;;;;;2.47;1.20;;;;;;;14.60;100.00;100007.19;4911382;29;20251;-80
2023/09/24 07:01:53;;;;;;;1.13;1.00;;;;;;;14.64;100.00;99992.19;4926070;29;20655;-80
2023/09/24 07:04:23;;;;;;;1.33;1.07;;;;;;;14.54;100.00;99995.47;4912375;29;20202;-80
2023/09/24 07:06:55;;;;;;;2.67;1.10;;;;;;;14.76;100.00;100003.75;4929791;29;20225;-80
2023/09/24 07:09:24;;;;;;;3.10;0.90;;;;;;;14.72;100.00;100001.75;4933982;29;20200;-80
2023/09/24 07:11:55;;;;;;;3.13;1.03;;;;;;;14.71;100.00;100006.34;4910219;29;20209;-81
2023/09/24 07:14:25;;;;;;;1.33;0.90;;;;;;;14.68;100.00;100006.00;4912252;29;20200;-81
2023/09/24 07:16:56;;;;;;;1.63;1.13;;;;;;;14.71;100.00;100011.72;4928435;29;20209;-80
2023/09/24 07:19:26;;;;;;;1.30;1.07;;;;;;;14.79;100.00;100022.13;4912379;29;20289;-80
2023/09/24 07:21:54;;;;;;;2.03;1.00;;;;;;;14.88;100.00;100019.91;4915449;29;20226;-80
2023/09/24 07:24:25;;;;;;;1.67;1.07;;;;;;;14.90;100.00;100031.28;4907952;29;20210;-80
2023/09/24 07:26:53;;;;;;;2.57;1.00;;;;;;;14.92;100.00;100026.47;4909272;29;20294;-80
2023/09/24 07:29:21;;;;;;;1.30;1.03;;;;;;;14.93;100.00;100026.22;4892598;29;20212;-80
2023/09/24 07:31:51;;;;;;;1.63;1.00;;;;;;;14.88;100.00;100031.50;4910377;29;20688;-80
2023/09/24 07:34:22;;;;;;;1.90;1.10;;;;;;;14.86;100.00;100030.94;4914086;29;20250;-82
2023/09/24 07:37:08;;;;;;;2.23;1.20;;;;;;;14.76;100.00;100021.81;4927763;29;20232;-81
2023/09/24 07:39:42;;;;;;;0.90;0.90;;;;;;;14.83;100.00;100036.81;4909874;29;20245;-80
2023/09/24 07:42:12;;;;;;;1.50;1.00;;;;;;;14.82;100.00;100037.88;4908562;29;20213;-80
2023/09/24 07:44:42;;;;;;;2.90;0.93;;;;;;;14.94;100.00;100025.16;4892861;29;20213;-81
2023/09/24 07:47:11;;;;;;;1.97;0.90;;;;;;;15.01;100.00;100038.53;4907637;29;20256;-80
2023/09/24 07:49:39;;;;;;;1.27;0.80;;;;;;;14.93;100.00;100039.72;4908906;29;20198;-80
2023/09/24 07:52:12;;;;;;;1.83;1.10;;;;;;;15.03;100.00;100047.19;4907391;29;20682;-81
2023/09/24 07:54:41;;;;;;;2.40;1.10;;;;;;;15.02;100.00;100048.28;4904769;29;20233;-80
2023/09/24 07:57:15;;;;;;;2.70;1.00;;;;;;;14.91;100.00;100047.25;4908304;29;20245;-80
2023/09/24 07:59:43;;;;;;;1.13;0.83;;;;;;;15.05;100.00;100044.28;4890448;29;20265;-80
2023/09/24 08:02:11;;;;;;;2.60;1.00;;;;;;;15.10;100.00;100052.47;4907156;29;20671;-80
2023/09/24 08:04:40;;;;;;;2.20;1.07;;;;;;;15.05;100.00;100055.06;4891726;29;20202;-80
2023/09/24 08:07:08;;;;;;;1.30;0.90;;;;;;;15.03;100.00;100051.78;4908217;29;20213;-80
2023/09/24 08:09:38;;;;;;;2.67;1.03;;;;;;;14.90;100.00;100056.38;4907860;29;20774;-80
2023/09/24 08:12:06;;;;;;;1.20;1.10;;;;;;;14.99;100.00;100057.66;4922700;29;20219;-80
2023/09/24 08:14:35;;;;;;;1.60;1.20;;;;;;;14.76;100.00;100049.59;4906056;29;20578;-81
2023/09/24 08:17:05;;;;;;;1.93;1.17;;;;;;;14.80;100.00;100055.34;4907356;29;20231;-81
2023/09/24 08:19:35;;;;;;;1.80;1.00;;;;;;;14.72;100.00;100059.22;4893319;29;20206;-81
2023/09/24 08:22:03;;;;;;;1.43;1.10;;;;;;;14.75;100.00;100060.63;4907521;29;20260;-81
2023/09/24 08:24:30;;;;;;;1.47;1.00;;;;;;;14.76;100.00;100068.47;4908023;29;20198;-81
2023/09/24 08:27:02;;;;;;;1.33;1.00;;;;;;;14.80;100.00;100061.56;4908226;29;20225;-80
2023/09/24 08:29:38;;;;;;;2.30;1.00;;;;;;;14.81;100.00;100065.06;4908382;29;20175;-81
2023/09/24 08:32:14;;;;;;;1.10;0.90;;;;;;;14.83;100.00;100068.38;4907397;29;20190;-80
2023/09/24 08:34:48;;;;;;;2.57;1.00;;;;;;;14.83;100.00;100074.59;4907291;29;20194;-80
2023/09/24 08:37:22;;;;;;;3.10;1.00;;;;;;;14.83;100.00;100076.47;4905842;29;20217;-80
2023/09/24 08:39:53;;;;;;;1.70;0.90;;;;;;;14.84;100.00;100089.69;4906382;29;20207;-80
2023/09/24 08:42:25;;;;;;;1.60;1.20;;;;;;;14.86;100.00;100078.69;4907249;29;20257;-80
2023/09/24 08:45:11;;;;;;;4.10;1.00;;;;;;;14.84;100.00;100075.38;4907475;29;20194;-81
2023/09/24 08:47:42;;;;;;;1.97;1.00;;;;;;;14.93;100.00;100072.09;4907507;29;20199;-80
2023/09/24 08:50:15;;;;;;;1.60;0.90;;;;;;;14.83;100.00;100074.59;4907357;29;20210;-81
2023/09/24 08:52:50;;;;;;;3.73;1.10;;;;;;;14.89;100.00;100078.19;4892028;29;20719;-80
2023/09/24 08:55:18;;;;;;;1.70;1.00;;;;;;;14.78;100.00;100085.25;4921814;29;20564;-80
2023/09/24 08:57:46;;;;;;;2.30;1.10;;;;;;;14.83;100.00;100092.66;4889441;29;20213;-80
2023/09/24 09:00:16;;;;;;;1.37;1.10;;;;;;;14.75;100.00;100079.50;4891020;29;20214;-79
2023/09/24 09:02:44;;;;;;;1.33;1.00;;;;;;;14.91;100.00;100076.91;4906452;29;20190;-80
2023/09/24 09:05:25;;;;;;;1.20;0.90;;;;;;;14.97;100.00;100077.84;4906915;29;20195;-81
2023/09/24 09:08:03;;;;;;;1.47;1.10;;;;;;;14.87;100.00;100080.31;4907110;29;20567;-81
2023/09/24 09:10:37;;;;;;;1.50;1.10;;;;;;;14.80;100.00;100090.41;4906522;29;20202;-80
2023/09/24 09:13:14;;;;;;;3.33;1.07;;;;;;;14.80;100.00;100083.13;4921820;29;20243;-80
2023/09/24 09:15:46;;;;;;;1.37;0.90;;;;;;;14.88;100.00;100080.06;4906790;29;20202;-80
2023/09/24 09:18:23;;;;;;;1.13;0.97;;;;;;;14.86;100.00;100078.69;4905182;29;20226;-80
2023/09/24 09:20:59;;;;;;;2.07;1.30;;;;;;;14.90;100.00;100075.25;4904856;29;20294;-80
2023/09/24 09:23:46;;;;;;;1.33;1.10;;;;;;;14.97;100.00;100078.66;4906588;29;20202;-81
2023/09/24 09:26:30;;;;;;;1.60;1.07;;;;;;;15.10;100.00;100082.16;4921923;29;20195;-80
2023/09/24 09:29:05;;;;;;;2.07;1.10;;;;;;;15.21;100.00;100068.63;4921707;29;20259;-80
2023/09/24 09:31:48;;;;;;;2.20;1.07;;;;;;;15.00;100.00;100071.97;4922193;29;20288;-80
2023/09/24 09:34:21;;;;;;;1.40;1.10;;;;;;;15.10;100.00;100076.75;4921667;29;20273;-80
2023/09/24 09:36:50;;;;;;;2.63;1.03;;;;;;;15.04;100.00;100065.03;4905254;29;20230;-80
2023/09/24 09:39:19;;;;;;;0.93;0.83;;;;;;;15.25;100.00;100077.91;4904749;29;20195;-80
2023/09/24 09:41:48;;;;;;;1.33;1.00;;;;;;;15.22;100.00;100067.56;4891421;29;20284;-80
2023/09/24 09:44:19;;;;;;;1.93;1.10;;;;;;;15.35;100.00;100080.00;4906102;29;20195;-80
2023/09/24 09:46:49;;;;;;;1.57;1.10;;;;;;;15.54;100.00;100075.25;4904807;29;20298;-80
2023/09/24 09:49:20;;;;;;;1.23;0.90;;;;;;;15.61;100.00;100070.53;4906324;29;20198;-80
2023/09/24 09:51:55;;;;;;;1.63;1.00;;;;;;;15.64;100.00;100070.84;4905782;29;20206;-80
2023/09/24 09:54:27;;;;;;;2.30;1.27;;;;;;;15.70;100.00;100080.69;4906352;29;20310;-81
2023/09/24 09:56:56;;;;;;;3.17;1.30;;;;;;;15.72;100.00;100070.44;4906223;29;20218;-80
2023/09/24 09:59:26;;;;;;;1.83;0.90;;;;;;;15.68;100.00;100061.19;4890746;29;20263;-81
2023/09/24 10:01:54;;;;;;;0.97;0.87;;;;;;;15.88;100.00;100060.75;4907256;29;20201;-81
2023/09/24 10:04:25;;;;;;;1.30;1.00;;;;;;;15.83;100.00;100066.88;4890649;29;20194;-80
2023/09/24 10:06:53;;;;;;;2.17;1.10;;;;;;;15.86;100.00;100076.41;4905630;29;20187;-80
2023/09/24 10:09:34;;;;;;;1.60;1.10;;;;;;;15.71;100.00;100071.53;4904761;29;20195;-80
2023/09/24 10:12:07;;;;;;;1.60;1.20;;;;;;;15.92;100.00;100075.41;4906702;29;20178;-80
2023/09/24 10:14:42;;;;;;;1.27;0.97;;;;;;;15.85;100.00;100067.47;4905387;29;20549;-80
2023/09/24 10:17:17;;;;;;;1.40;1.13;;;;;;;15.89;100.00;100065.09;4919991;29;20781;-80
2023/09/24 10:20:00;;;;;;;2.27;1.00;;;;;;;15.92;100.00;100074.56;4903657;29;20199;-80
2023/09/24 10:22:32;;;;;;;1.20;1.00;;;;;;;16.03;100.00;100068.31;4904206;29;20194;-80
2023/09/24 10:25:30;;;;;;;1.13;0.80;;;;;;;15.97;100.00;100055.75;4906078;29;20187;-80
2023/09/24 10:28:03;;;;;;;2.53;1.30;;;;;;;15.99;100.00;100065.28;4903553;29;20207;-80
2023/09/24 10:31:02;;;;;;;1.90;1.17;;;;;;;16.07;100.00;100067.56;4902705;29;20198;-80
2023/09/24 10:33:57;;;;;;;1.83;1.40;;;;;;;16.22;100.00;100057.00;4918896;29;20203;-80
2023/09/24 10:36:30;;;;;;;1.10;1.00;;;;;;;16.17;100.00;100054.22;4903606;29;20699;-80
2023/09/24 10:39:08;;;;;;;1.10;1.00;;;;;;;16.07;100.00;100050.53;4903147;29;20242;-80
2023/09/24 10:41:58;;;;;;;3.33;1.20;;;;;;;16.17;100.00;100048.81;4903517;29;20230;-80
2023/09/24 10:44:27;;;;;;;1.43;0.90;;;;;;;16.18;100.00;100042.34;4903106;29;20203;-80
2023/09/24 10:46:56;;;;;;;1.30;1.00;;;;;;;16.24;100.00;100041.34;4903073;29;20693;-80
2023/09/24 10:49:26;;;;;;;1.97;1.10;;;;;;;16.23;100.00;100042.44;4903330;29;20194;-80
2023/09/24 10:51:58;;;;;;;1.03;0.93;;;;;;;16.47;100.00;100053.06;4902295;29;20191;-80
2023/09/24 10:54:27;;;;;;;2.37;1.07;;;;;;;16.37;100.00;100044.78;4902724;29;20234;-80
2023/09/24 10:56:57;;;;;;;1.20;1.10;;;;;;;16.42;100.00;100055.69;4902640;29;20195;-79
2023/09/24 10:59:35;;;;;;;1.83;1.03;;;;;;;16.42;100.00;100048.41;4903371;29;20206;-80
2023/09/24 11:02:17;;;;;;;2.77;1.17;;;;;;;16.30;100.00;100037.66;4902328;29;20195;-80
2023/09/24 11:04:49;;;;;;;1.20;1.10;;;;;;;16.34;100.00;100040.69;4916657;29;20180;-79
2023/09/24 11:07:17;;;;;;;1.40;1.00;;;;;;;16.32;100.00;100039.31;4901229;29;20196;-79
2023/09/24 11:09:50;;;;;;;2.37;1.30;;;;;;;16.33;100.00;100035.53;4901862;29;20198;-82
2023/09/24 11:12:18;;;;;;;3.03;1.40;;;;;;;16.56;100.00;100040.75;4903805;29;20255;-80
2023/09/24 11:14:57;;;;;;;2.23;1.10;;;;;;;16.83;100.00;100038.19;4902603;29;20692;-80
2023/09/24 11:17:29;;;;;;;2.10;1.17;;;;;;;16.80;100.00;100044.91;4888456;29;20214;-80
2023/09/24 11:19:56;;;;;;;1.17;1.07;;;;;;;17.15;100.00;100055.38;4887905;29;20191;-80
2023/09/24 11:22:25;;;;;;;2.37;1.13;;;;;;;17.33;100.00;100059.66;4904008;29;20184;-80
2023/09/24 11:25:06;;;;;;;1.77;1.10;;;;;;;17.44;100.00;100059.53;4902520;29;20195;-80
2023/09/24 11:27:45;;;;;;;1.30;0.90;;;;;;;17.47;100.00;100055.47;4904328;29;20267;-80
2023/09/24 11:30:18;;;;;;;2.03;1.00;;;;;;;17.62;100.00;100062.97;4902469;29;20654;-80
2023/09/24 11:32:47;;;;;;;1.27;1.07;;;;;;;17.77;100.00;100050.41;4901912;29;20263;-80
2023/09/24 11:35:21;;;;;;;1.40;1.23;;;;;;;17.68;100.00;100043.00;4890342;29;20198;-80
2023/09/24 11:37:56;;;;;;;1.37;1.13;;;;;;;17.62;100.00;100033.19;4905766;29;20230;-80
2023/09/24 11:40:28;;;;;;;2.10;1.03;;;;;;;17.52;100.00;100026.56;4905042;29;20187;-80
2023/09/24 11:43:01;;;;;;;2.00;1.20;;;;;;;17.65;100.00;100025.34;4905186;29;20180;-79